createdAt,value
2023-01-19T00:00:46.917Z,74.82
2023-01-19T00:03:26.774Z,69.47
2023-01-19T00:05:54.404Z,56.83
2023-01-19T00:08:21.422Z,70.72
2023-01-19T00:10:53.294Z,76.70
2023-01-19T00:13:20.317Z,66.43
2023-01-19T00:15:47.793Z,75.50
2023-01-19T00:18:15.348Z,74.35
2023-01-19T00:20:44.897Z,62.50
2023-01-19T00:23:11.942Z,57.25
2023-01-19T00:25:42.710Z,77.45
2023-01-19T00:28:15.195Z,74.05
2023-01-19T00:30:43.399Z,74.95
2023-01-19T00:33:13.824Z,73.90
2023-01-19T00:35:45.481Z,72.13
2023-01-19T00:38:12.768Z,76.03
2023-01-19T00:40:40.360Z,72.75
2023-01-19T00:43:07.355Z,79.32
2023-01-19T00:45:35.003Z,69.95
2023-01-19T00:48:02.151Z,82.20
2023-01-19T00:50:31.645Z,80.13
2023-01-19T00:53:01.380Z,83.13
2023-01-19T00:55:30.690Z,110.28
2023-01-19T00:57:58.235Z,104.35
2023-01-19T01:00:26.208Z,92.93
2023-01-19T01:02:53.880Z,105.53
2023-01-19T01:05:21.605Z,112.88
2023-01-19T01:07:49.629Z,90.85
2023-01-19T01:10:24.344Z,91.15
2023-01-19T01:12:55.988Z,111.15
2023-01-19T01:15:28.236Z,145.15
2023-01-19T01:17:56.014Z,128.10
2023-01-19T01:20:27.974Z,128.35
2023-01-19T01:22:56.822Z,132.90
2023-01-19T01:25:26.111Z,136.10
2023-01-19T01:27:54.164Z,122.13
2023-01-19T01:30:22.137Z,148.52
2023-01-19T01:32:49.805Z,138.25
2023-01-19T01:35:17.353Z,139.23
2023-01-19T01:37:44.784Z,153.60
2023-01-19T01:40:17.634Z,163.88
2023-01-19T01:42:45.505Z,75.00
2023-01-19T01:45:35.384Z,135.32
2023-01-19T01:48:09.940Z,96.85
2023-01-19T01:51:19.084Z,84.30
2023-01-19T01:53:49.752Z,95.38
2023-01-19T01:56:22.189Z,81.05
2023-01-19T01:58:49.746Z,67.73
2023-01-19T02:01:35.833Z,83.75
2023-01-19T02:04:03.018Z,84.25
2023-01-19T02:06:30.575Z,131.15
2023-01-19T02:09:26.186Z,105.93
2023-01-19T02:12:13.193Z,89.75
2023-01-19T02:14:40.138Z,102.57
2023-01-19T02:17:07.624Z,142.57
2023-01-19T02:19:40.872Z,152.50
2023-01-19T02:22:36.083Z,130.43
2023-01-19T02:25:05.030Z,110.15
2023-01-19T02:27:33.089Z,165.93
2023-01-19T02:30:03.592Z,240.90
2023-01-19T02:32:30.901Z,156.50
2023-01-19T02:34:58.209Z,207.15
2023-01-19T02:37:28.489Z,135.70
2023-01-19T02:39:59.017Z,165.55
2023-01-19T02:42:49.577Z,118.32
2023-01-19T02:45:20.556Z,98.63
2023-01-19T02:47:50.826Z,87.47
2023-01-19T02:50:36.291Z,152.80
2023-01-19T02:53:25.383Z,74.85
2023-01-19T02:56:26.920Z,140.95
2023-01-19T02:59:15.828Z,94.97
2023-01-19T03:02:08.858Z,155.82
2023-01-19T03:04:45.107Z,159.13
2023-01-19T03:07:16.894Z,153.65
2023-01-19T03:09:58.887Z,104.80
2023-01-19T03:12:32.971Z,120.75
2023-01-19T03:15:07.981Z,175.95
2023-01-19T03:17:36.827Z,131.25
2023-01-19T03:20:06.785Z,121.93
2023-01-19T03:22:34.872Z,89.18
2023-01-19T03:25:03.004Z,85.70
2023-01-19T03:27:40.854Z,101.20
2023-01-19T03:30:18.720Z,198.60
2023-01-19T03:32:54.806Z,189.32
2023-01-19T03:35:24.738Z,187.80
2023-01-19T03:37:56.051Z,118.50
2023-01-19T03:40:26.280Z,59.50
2023-01-19T03:42:53.961Z,91.68
2023-01-19T03:45:22.649Z,89.82
2023-01-19T03:47:49.763Z,75.68
2023-01-19T03:50:29.012Z,75.07
2023-01-19T03:53:11.481Z,82.13
2023-01-19T03:55:41.961Z,81.55
2023-01-19T03:58:08.911Z,114.72
2023-01-19T04:00:36.947Z,66.10
2023-01-19T04:03:05.497Z,76.85
2023-01-19T04:05:33.207Z,176.07
2023-01-19T04:08:00.753Z,152.68
2023-01-19T04:10:27.976Z,90.93
2023-01-19T04:13:00.126Z,136.95
2023-01-19T04:17:58.619Z,105.10
2023-01-19T04:20:28.185Z,103.38
2023-01-19T04:22:59.178Z,97.82
2023-01-19T04:25:27.274Z,87.00
2023-01-19T04:27:55.201Z,95.50
2023-01-19T04:30:22.746Z,184.93
2023-01-19T04:32:49.926Z,178.75
2023-01-19T04:35:17.471Z,268.27
2023-01-19T04:37:47.438Z,137.82
2023-01-19T04:40:14.853Z,139.57
2023-01-19T04:42:45.682Z,202.43
2023-01-19T04:45:13.800Z,72.43
2023-01-19T04:47:42.667Z,134.20
2023-01-19T04:50:11.668Z,206.15
2023-01-19T04:52:38.669Z,156.32
2023-01-19T04:55:07.186Z,165.40
2023-01-19T04:57:34.417Z,169.45
2023-01-19T05:00:03.016Z,107.80
2023-01-19T05:02:30.069Z,114.72
2023-01-19T05:04:57.547Z,102.40
2023-01-19T05:07:24.594Z,129.90
2023-01-19T05:09:51.878Z,93.70
2023-01-19T05:12:18.934Z,109.70
2023-01-19T05:14:46.582Z,91.35
2023-01-19T05:17:13.543Z,102.70
2023-01-19T05:19:40.931Z,99.40
2023-01-19T05:22:08.149Z,83.68
2023-01-19T05:24:35.477Z,82.68
2023-01-19T05:27:02.477Z,123.93
2023-01-19T05:29:29.716Z,78.75
2023-01-19T05:31:56.756Z,94.32
2023-01-19T05:34:24.236Z,106.05
2023-01-19T05:36:51.581Z,104.05
2023-01-19T05:39:18.905Z,84.60
2023-01-19T05:41:45.969Z,120.88
2023-01-19T05:44:13.884Z,129.73
2023-01-19T05:46:41.424Z,105.25
2023-01-19T05:49:09.064Z,139.85
2023-01-19T05:51:38.598Z,103.30
2023-01-19T05:54:07.113Z,109.07
2023-01-19T05:56:34.587Z,149.95
2023-01-19T05:59:02.337Z,110.22
2023-01-19T06:01:29.358Z,141.70
2023-01-19T06:03:57.610Z,98.95
2023-01-19T06:06:24.684Z,82.78
2023-01-19T06:08:51.954Z,95.03
2023-01-19T06:11:19.048Z,79.88
2023-01-19T06:13:47.542Z,70.90
2023-01-19T06:16:14.554Z,86.70
2023-01-19T06:18:41.955Z,90.05
2023-01-19T06:21:10.472Z,79.63
2023-01-19T06:23:37.736Z,83.25
2023-01-19T06:26:04.803Z,85.55
2023-01-19T06:28:32.373Z,105.47
2023-01-19T06:30:59.503Z,78.60
2023-01-19T06:33:27.870Z,77.55
2023-01-19T06:35:55.757Z,86.40
2023-01-19T06:38:23.322Z,100.30
2023-01-19T06:40:55.641Z,105.63
2023-01-19T06:43:23.053Z,99.32
2023-01-19T06:45:50.442Z,100.78
2023-01-19T06:48:19.097Z,131.98
2023-01-19T06:50:46.984Z,105.53
2023-01-19T06:53:16.708Z,103.13
2023-01-19T06:55:47.074Z,125.25
2023-01-19T06:58:14.372Z,122.63
2023-01-19T07:00:41.529Z,141.02
2023-01-19T07:03:09.365Z,103.45
2023-01-19T07:05:36.783Z,108.88
2023-01-19T07:08:04.619Z,108.72
2023-01-19T07:11:22.165Z,102.55
2023-01-19T07:13:19.058Z,131.38
2023-01-19T07:15:46.202Z,96.28
2023-01-19T07:18:13.497Z,87.82
2023-01-19T07:20:40.557Z,123.03
2023-01-19T07:23:07.908Z,98.22
2023-01-19T07:25:35.013Z,96.38
2023-01-19T07:28:02.953Z,102.53
2023-01-19T07:30:30.051Z,118.20
2023-01-19T07:32:58.588Z,109.10
2023-01-19T07:35:26.236Z,107.13
2023-01-19T07:37:53.769Z,96.32
2023-01-19T07:40:22.778Z,112.03
2023-01-19T07:42:52.101Z,98.55
2023-01-19T07:45:20.908Z,113.60
2023-01-19T07:47:49.981Z,92.10
2023-01-19T07:50:21.431Z,100.90
2023-01-19T07:52:53.531Z,92.90
2023-01-19T07:55:21.776Z,107.57
2023-01-19T07:57:52.412Z,88.88
2023-01-19T08:00:24.674Z,95.63
2023-01-19T08:02:53.747Z,114.80
2023-01-19T08:05:21.404Z,89.22
2023-01-19T08:07:48.704Z,92.28
2023-01-19T08:10:17.597Z,114.97
2023-01-19T08:12:44.881Z,113.32
2023-01-19T08:15:12.068Z,113.35
2023-01-19T08:17:39.325Z,115.32
2023-01-19T08:20:07.983Z,114.15
2023-01-19T08:22:35.581Z,111.10
2023-01-19T08:25:02.634Z,96.05
2023-01-19T08:27:31.345Z,78.97
2023-01-19T08:29:58.886Z,76.60
2023-01-19T08:32:26.300Z,65.78
2023-01-19T08:34:53.376Z,82.43
2023-01-19T08:37:20.627Z,98.78
2023-01-19T08:39:47.591Z,110.13
2023-01-19T08:42:14.857Z,101.07
2023-01-19T08:44:57.323Z,85.05
2023-01-19T08:49:52.152Z,61.97
2023-01-19T08:52:19.517Z,58.13
2023-01-19T08:54:46.557Z,100.55
2023-01-19T08:57:14.739Z,97.65
2023-01-19T08:59:41.868Z,78.65
2023-01-19T09:02:10.919Z,64.55
2023-01-19T09:04:38.075Z,74.15
2023-01-19T09:09:33.467Z,64.90
2023-01-19T09:12:00.806Z,101.60
2023-01-19T09:14:27.931Z,91.03
2023-01-19T09:16:56.220Z,79.63
2023-01-19T09:19:23.208Z,66.45
2023-01-19T09:21:51.063Z,72.75
2023-01-19T09:24:18.038Z,102.03
2023-01-19T09:26:45.438Z,89.28
2023-01-19T09:29:12.437Z,105.75
2023-01-19T09:31:41.036Z,88.38
2023-01-19T09:34:08.214Z,180.25
2023-01-19T09:36:37.596Z,129.77
2023-01-19T09:39:04.659Z,98.07
2023-01-19T09:41:34.948Z,89.32
2023-01-19T09:44:02.561Z,91.93
2023-01-19T09:46:42.099Z,98.70
2023-01-19T09:49:13.794Z,94.85
2023-01-19T09:51:45.227Z,88.78
2023-01-19T09:54:15.807Z,95.57
2023-01-19T09:56:45.272Z,84.30
2023-01-19T09:59:20.793Z,91.43
2023-01-19T10:01:54.225Z,92.90
2023-01-19T10:04:30.534Z,88.95
2023-01-19T10:07:13.341Z,81.13
2023-01-19T10:10:04.981Z,87.60
2023-01-19T10:12:41.236Z,97.85
2023-01-19T10:15:41.858Z,85.97
2023-01-19T10:18:19.363Z,98.97
2023-01-19T10:20:56.416Z,92.13
2023-01-19T10:23:39.260Z,95.30
2023-01-19T10:26:24.434Z,80.47
2023-01-19T10:28:56.677Z,84.35
2023-01-19T10:31:25.042Z,98.65
2023-01-19T10:33:54.326Z,96.95
2023-01-19T10:36:38.101Z,92.05
2023-01-19T10:39:11.568Z,98.60
2023-01-19T10:44:05.900Z,80.18
2023-01-19T10:46:42.777Z,91.80
2023-01-19T10:49:28.994Z,84.13
2023-01-19T10:51:58.279Z,84.63
2023-01-19T10:54:27.779Z,91.75
2023-01-19T10:56:59.346Z,76.25
2023-01-19T10:59:35.647Z,86.28
2023-01-19T11:02:26.667Z,82.63
2023-01-19T11:04:58.889Z,68.03
2023-01-19T11:07:32.561Z,86.15
2023-01-19T11:10:15.320Z,90.80
2023-01-19T11:12:45.702Z,98.75
2023-01-19T11:15:25.509Z,93.35
2023-01-19T11:17:53.577Z,82.15
2023-01-19T11:20:25.963Z,85.75
2023-01-19T11:23:21.077Z,89.72
2023-01-19T11:25:51.923Z,90.70
2023-01-19T11:28:32.759Z,76.32
2023-01-19T11:31:29.497Z,110.15
2023-01-19T11:33:59.840Z,105.78
2023-01-19T11:36:32.564Z,89.95
2023-01-19T11:39:13.960Z,96.00
2023-01-19T11:41:41.810Z,99.43
2023-01-19T11:44:17.700Z,90.75
2023-01-19T11:46:50.633Z,84.65
2023-01-19T11:49:31.920Z,82.88
2023-01-19T11:52:05.195Z,84.03
2023-01-19T11:54:37.057Z,88.03
2023-01-19T11:57:11.669Z,105.10
2023-01-19T11:59:38.757Z,96.88
2023-01-19T12:02:25.844Z,103.32
2023-01-19T12:04:57.170Z,97.28
2023-01-19T12:07:30.630Z,92.45
2023-01-19T12:12:40.491Z,115.05
2023-01-19T12:15:40.555Z,103.53
2023-01-19T12:18:18.235Z,89.22
2023-01-19T12:20:50.685Z,99.20
2023-01-19T12:23:57.910Z,85.47
2023-01-19T12:26:42.744Z,73.75
2023-01-19T12:29:19.623Z,86.00
2023-01-19T12:32:19.563Z,78.60
2023-01-19T12:34:49.303Z,80.43
2023-01-19T12:37:30.990Z,95.22
2023-01-19T12:40:01.715Z,112.90
2023-01-19T12:42:29.373Z,102.15
2023-01-19T12:45:09.213Z,95.47
2023-01-19T12:47:37.357Z,81.07
2023-01-19T12:50:12.947Z,87.10
2023-01-19T12:52:49.444Z,90.90
2023-01-19T12:55:46.561Z,102.78
2023-01-19T12:58:15.337Z,83.43
2023-01-19T13:00:44.675Z,89.18
2023-01-19T13:03:17.565Z,112.00
2023-01-19T13:08:12.668Z,83.57
2023-01-19T13:11:10.916Z,85.63
2023-01-19T13:13:39.963Z,87.32
2023-01-19T13:16:22.472Z,95.88
2023-01-19T13:18:58.352Z,66.85
2023-01-19T13:21:44.643Z,59.30
2023-01-19T13:24:22.381Z,78.60
2023-01-19T13:26:57.516Z,68.97
2023-01-19T13:29:41.215Z,74.72
2023-01-19T13:32:18.858Z,74.88
2023-01-19T13:34:51.840Z,60.35
2023-01-19T13:37:26.405Z,69.47
2023-01-19T13:39:54.923Z,58.33
2023-01-19T13:42:37.328Z,54.40
2023-01-19T13:45:27.434Z,60.85
2023-01-19T13:47:58.498Z,67.53
2023-01-19T13:50:28.738Z,72.30
2023-01-19T13:52:58.821Z,56.88
2023-01-19T13:55:30.905Z,57.65
2023-01-19T13:57:59.040Z,114.85
2023-01-19T14:00:28.632Z,73.88
2023-01-19T14:03:13.624Z,80.75
2023-01-19T14:05:42.755Z,77.90
2023-01-19T14:08:18.101Z,68.70
2023-01-19T14:10:47.182Z,72.03
2023-01-19T14:13:18.391Z,66.22
2023-01-19T14:15:47.316Z,78.38
2023-01-19T14:18:14.517Z,74.35
2023-01-19T14:20:51.574Z,67.13
2023-01-19T14:23:43.452Z,76.30
2023-01-19T14:26:52.998Z,77.55
2023-01-19T14:29:27.979Z,77.55
2023-01-19T14:32:17.075Z,68.65
2023-01-19T14:35:04.643Z,88.57
2023-01-19T14:37:33.265Z,77.28
2023-01-19T14:40:13.168Z,71.32
2023-01-19T14:42:43.018Z,78.50
2023-01-19T14:45:22.727Z,68.88
2023-01-19T14:48:17.952Z,80.93
2023-01-19T14:51:02.032Z,74.82
2023-01-19T14:53:36.742Z,90.90
2023-01-19T14:56:06.064Z,92.10
2023-01-19T14:58:35.230Z,134.82
2023-01-19T15:01:03.320Z,103.85
2023-01-19T15:03:44.638Z,104.18
2023-01-19T15:06:21.927Z,102.30
2023-01-19T15:08:50.392Z,73.72
2023-01-19T15:11:27.000Z,88.47
2023-01-19T15:13:55.404Z,67.65
2023-01-19T15:16:23.911Z,92.38
2023-01-19T15:18:51.127Z,78.20
2023-01-19T15:21:21.624Z,90.35
2023-01-19T15:23:48.768Z,92.80
2023-01-19T15:26:18.920Z,82.35
2023-01-19T15:28:47.012Z,86.40
2023-01-19T15:31:16.807Z,105.18
2023-01-19T15:33:44.644Z,93.70
2023-01-19T15:36:22.348Z,72.63
2023-01-19T15:38:52.507Z,116.70
2023-01-19T15:41:29.769Z,102.85
2023-01-19T15:43:57.234Z,86.13
2023-01-19T15:46:25.859Z,101.60
2023-01-19T15:48:54.078Z,100.05
2023-01-19T15:51:25.153Z,84.32
2023-01-19T15:53:53.383Z,92.65
2023-01-19T15:56:26.467Z,108.47
2023-01-19T15:58:54.189Z,104.07
2023-01-19T16:01:24.228Z,93.18
2023-01-19T16:03:51.302Z,98.60
2023-01-19T16:06:18.758Z,112.60
2023-01-19T16:08:45.971Z,98.53
2023-01-19T16:11:15.600Z,119.65
2023-01-19T16:13:46.537Z,105.95
2023-01-19T16:16:19.661Z,108.82
2023-01-19T16:18:47.444Z,106.40
2023-01-19T16:21:15.039Z,83.75
2023-01-19T16:23:42.117Z,114.60
2023-01-19T16:26:26.650Z,101.68
2023-01-19T16:28:57.529Z,118.00
2023-01-19T16:31:24.992Z,109.43
2023-01-19T16:33:52.063Z,112.03
2023-01-19T16:36:28.426Z,142.07
2023-01-19T16:38:58.193Z,116.28
2023-01-19T16:41:25.595Z,105.60
2023-01-19T16:43:57.492Z,95.47
2023-01-19T16:46:40.673Z,106.63
2023-01-19T16:49:28.561Z,118.50
2023-01-19T16:51:58.366Z,109.03
2023-01-19T16:54:26.449Z,98.90
2023-01-19T16:56:56.483Z,85.68
2023-01-19T16:59:24.568Z,95.30
2023-01-19T17:01:52.195Z,88.78
2023-01-19T17:04:20.792Z,81.40
2023-01-19T17:06:48.249Z,85.97
2023-01-19T17:09:15.268Z,131.15
2023-01-19T17:11:42.746Z,103.80
2023-01-19T17:14:22.255Z,86.88
2023-01-19T17:16:50.068Z,83.15
2023-01-19T17:19:19.038Z,75.38
2023-01-19T17:21:48.775Z,75.35
2023-01-19T17:24:16.684Z,90.72
2023-01-19T17:26:46.034Z,80.63
2023-01-19T17:29:13.082Z,102.45
2023-01-19T17:31:40.998Z,98.68
2023-01-19T17:34:09.776Z,73.13
2023-01-19T17:36:37.955Z,78.15
2023-01-19T17:39:08.676Z,98.03
2023-01-19T17:41:36.246Z,99.88
2023-01-19T17:44:05.207Z,89.47
2023-01-19T17:46:36.355Z,76.18
2023-01-19T17:49:05.596Z,74.82
2023-01-19T17:51:33.706Z,67.82
2023-01-19T17:54:01.197Z,82.63
2023-01-19T17:56:33.104Z,72.22
2023-01-19T17:59:00.254Z,76.30
2023-01-19T18:01:30.527Z,72.22
2023-01-19T18:03:58.106Z,115.68
2023-01-19T18:06:26.130Z,129.30
2023-01-19T18:08:53.191Z,95.30
2023-01-19T18:11:21.444Z,89.40
2023-01-19T18:13:50.029Z,76.32
2023-01-19T18:16:26.140Z,66.75
2023-01-19T18:18:54.577Z,66.32
2023-01-19T18:21:23.848Z,79.63
2023-01-19T18:23:51.252Z,86.97
2023-01-19T18:26:21.226Z,89.15
2023-01-19T18:28:49.353Z,91.57
2023-01-19T18:31:18.993Z,71.10
2023-01-19T18:33:47.417Z,105.15
2023-01-19T18:36:15.485Z,82.10
2023-01-19T18:38:42.943Z,72.60
2023-01-19T18:41:12.833Z,78.43
2023-01-19T18:43:39.902Z,72.45
2023-01-19T18:46:07.572Z,77.13
2023-01-19T18:48:34.705Z,72.43
2023-01-19T18:51:09.859Z,90.90
2023-01-19T18:53:36.884Z,89.45
2023-01-19T18:56:05.315Z,81.30
2023-01-19T18:58:33.454Z,88.93
2023-01-19T19:01:01.467Z,90.03
2023-01-19T19:03:29.426Z,91.03
2023-01-19T19:05:57.110Z,75.53
2023-01-19T19:08:24.318Z,83.97
2023-01-19T19:10:51.687Z,83.68
2023-01-19T19:13:21.858Z,95.30
2023-01-19T19:15:49.281Z,92.60
2023-01-19T19:18:16.529Z,85.35
2023-01-19T19:20:44.404Z,86.80
2023-01-19T19:23:11.930Z,82.80
2023-01-19T19:25:39.414Z,113.20
2023-01-19T19:28:06.858Z,101.68
2023-01-19T19:30:37.699Z,99.10
2023-01-19T19:33:04.968Z,101.90
2023-01-19T19:35:32.350Z,117.15
2023-01-19T19:37:59.494Z,91.55
2023-01-19T19:40:28.039Z,112.43
2023-01-19T19:42:57.578Z,105.30
2023-01-19T19:45:26.132Z,118.13
2023-01-19T19:47:53.255Z,106.28
2023-01-19T19:50:20.569Z,93.05
2023-01-19T19:52:47.550Z,91.15
2023-01-19T19:55:14.974Z,115.15
2023-01-19T19:57:41.960Z,107.07
2023-01-19T20:00:09.820Z,103.10
2023-01-19T20:02:37.272Z,98.35
2023-01-19T20:05:05.450Z,106.20
2023-01-19T20:07:32.840Z,105.18
2023-01-19T20:10:00.334Z,114.47
2023-01-19T20:12:27.532Z,117.05
2023-01-19T20:14:55.035Z,120.60
2023-01-19T20:17:23.195Z,108.40
2023-01-19T20:19:50.697Z,94.88
2023-01-19T20:22:17.744Z,106.82
2023-01-19T20:24:45.154Z,94.80
2023-01-19T20:27:12.257Z,115.65
2023-01-19T20:29:39.850Z,97.55
2023-01-19T20:32:06.898Z,111.10
2023-01-19T20:34:35.660Z,90.40
2023-01-19T20:37:04.768Z,109.35
2023-01-19T20:39:34.586Z,84.07
2023-01-19T20:42:01.783Z,99.68
2023-01-19T20:44:29.086Z,87.85
2023-01-19T20:46:56.500Z,91.22
2023-01-19T20:49:24.461Z,78.22
2023-01-19T20:51:52.134Z,95.07
2023-01-19T20:54:22.614Z,86.78
2023-01-19T20:56:50.246Z,98.68
2023-01-19T20:59:17.851Z,94.68
2023-01-19T21:01:48.378Z,78.57
2023-01-19T21:04:17.273Z,86.38
2023-01-19T21:06:44.854Z,114.68
2023-01-19T21:09:12.240Z,103.85
2023-01-19T21:11:39.936Z,106.15
2023-01-19T21:14:07.777Z,93.78
2023-01-19T21:16:35.788Z,102.53
2023-01-19T21:19:04.523Z,88.07
2023-01-19T21:21:32.062Z,84.78
2023-01-19T21:24:03.200Z,86.85
2023-01-19T21:26:31.336Z,79.82
2023-01-19T21:29:00.380Z,79.28
2023-01-19T21:31:28.338Z,90.60
2023-01-19T21:33:57.239Z,93.95
2023-01-19T21:36:24.834Z,77.82
2023-01-19T21:38:52.504Z,90.25
2023-01-19T21:41:20.106Z,88.00
2023-01-19T21:43:47.730Z,99.15
2023-01-19T21:46:22.066Z,87.05
2023-01-19T21:48:49.669Z,85.43
2023-01-19T21:51:17.033Z,91.75
2023-01-19T21:53:44.304Z,95.78
2023-01-19T21:56:11.822Z,71.38
2023-01-19T21:58:39.133Z,70.60
2023-01-19T22:01:10.848Z,88.25
2023-01-19T22:03:38.508Z,81.50
2023-01-19T22:06:07.861Z,89.18
2023-01-19T22:08:35.093Z,88.03
2023-01-19T22:11:06.839Z,79.55
2023-01-19T22:13:34.637Z,87.65
2023-01-19T22:16:11.997Z,73.68
2023-01-19T22:18:40.859Z,74.65
2023-01-19T22:21:19.907Z,82.05
2023-01-19T22:23:55.328Z,72.38
2023-01-19T22:26:23.586Z,82.20
2023-01-19T22:28:57.380Z,77.43
2023-01-19T22:31:26.203Z,71.65
2023-01-19T22:33:53.704Z,65.32
2023-01-19T22:36:34.055Z,64.85
2023-01-19T22:39:05.155Z,84.97
2023-01-19T22:41:36.387Z,73.90
2023-01-19T22:44:05.815Z,90.65
2023-01-19T22:46:35.800Z,63.92
2023-01-19T22:49:04.262Z,70.80
2023-01-19T22:51:32.264Z,58.75
2023-01-19T22:53:59.616Z,59.38
2023-01-19T22:56:30.208Z,56.53
2023-01-19T22:58:58.555Z,47.97
2023-01-19T23:01:33.535Z,48.58
2023-01-19T23:04:02.294Z,60.22
2023-01-19T23:06:31.944Z,60.55
2023-01-19T23:09:01.716Z,52.85
2023-01-19T23:11:35.720Z,60.15
2023-01-19T23:14:03.859Z,51.42
2023-01-19T23:19:14.926Z,43.25
2023-01-19T23:21:42.296Z,47.08
2023-01-19T23:24:09.807Z,51.25
2023-01-19T23:26:40.416Z,43.40
2023-01-19T23:29:12.634Z,52.50
2023-01-19T23:31:44.356Z,44.35
2023-01-19T23:34:12.430Z,45.95
2023-01-19T23:36:41.472Z,46.92
2023-01-19T23:39:19.672Z,43.40
2023-01-19T23:41:47.751Z,47.53
2023-01-19T23:44:15.423Z,49.03
2023-01-19T23:46:43.969Z,43.15
2023-01-19T23:49:11.813Z,39.15
2023-01-19T23:51:39.791Z,41.28
2023-01-19T23:54:06.915Z,39.97
2023-01-19T23:56:36.864Z,32.28
2023-01-19T23:59:09.752Z,33.15
